Nearby METAR Reports

 

KGRB - Ashwaubenon, Wisconsin, USA
Distance from station: WSW 10mi, 16km
Updated: 01/24/2019 1:53am
Clear
Clear
 Wind from W
Wind: W 8 mph , 13 km/h
Temperature: 9°F , -13°C
Wind Chill: -3°F , -19°C
Dew Point: 5°F , -15°C
Humidity: 85%
Barometer: 29.77 inHg , 1008.1 hPa
Clouds: Clear
Visibility: 10 miles , 16 km
2019/01/24 07:53 KGRB 240753Z AUTO 28007KT 10SM CLR M13/M15 A2977 RMK AO2 SLP096 I1001 T11281150
KOCQ - Oconto, Wisconsin, USA
Distance from station: N 24mi, 39km
Updated: 01/24/2019 2:35am
Clear
Clear
 Wind from calm
Wind: Calm
Temperature: 7°F , -14°C
Dew Point: 5°F , -15°C
Humidity: 92%
Barometer: 29.76 inHg , 1007.8 hPa
Clouds: Clear
Visibility: 10 miles , 16 km
2019/01/24 08:35 KOCQ 240835Z AUTO 00000KT 10SM CLR M14/M15 A2976 RMK AO1 T11401155
KMTW - Manitowac Muni, Wisconsin, USA
Distance from station: SSE 31mi, 49km
Updated: 01/24/2019 1:56am
Clear
Clear
 Wind from W
Wind: W 6 mph , 9 km/h
Temperature: 12°F , -11°C
Wind Chill: 2°F , -17°C
Dew Point: 9°F , -13°C
Humidity: 85%
Barometer: 29.78 inHg , 1008.5 hPa
Clouds: Clear
Visibility: 10 miles , 16 km
2019/01/24 07:56 KMTW 240756Z AUTO 26005KT 10SM CLR M11/M13 A2978 RMK AO2 SLP108 T11061128 FZRANO
 
KATW - Appleton/Outagam, Wisconsin, USA
Distance from station: WSW 33mi, 54km
Updated: 01/24/2019 2:35am
Clear
Clear
 Wind from W
Wind: W 9 mph , 15 km/h
Temperature: 5°F , -15°C
Wind Chill: -9°F , -23°C
Dew Point: 1°F , -17°C
Humidity: 85%
Barometer: 29.74 inHg , 1007.1 hPa
Clouds: Clear
Visibility: 10 miles , 16 km
2019/01/24 08:35 KATW 240835Z AUTO 27008KT 10SM CLR M15/M17 A2974 RMK AO2
KSUE - Sturgeon Bay, Wisconsin, USA
Distance from station: NE 34mi, 55km
Updated: 01/24/2019 1:56am
Clear
Clear
 Wind from WSW
Wind: WSW 6 mph , 9 km/h
Temperature: 12°F , -11°C
Wind Chill: 2°F , -17°C
Dew Point: 9°F , -13°C
Humidity: 85%
Barometer: 29.76 inHg , 1007.8 hPa
Clouds: Clear
Visibility: 10 miles , 16 km
2019/01/24 07:56 KSUE 240756Z AUTO 25005KT 10SM CLR M11/M13 A2976 RMK AO2 SLP103 T11061128 FZRANO
KEZS - Shawano Muni, Wisconsin, USA
Distance from station: WNW 36mi, 58km
Updated: 01/24/2019 2:55am
Mostly cloudy
Mostly cloudy
 Wind from WSW
Wind: WSW 3 mph , 6 km/h
Temperature: 12°F , -11°C
Dew Point: 10°F , -12°C
Humidity: 92%
Barometer: 29.75 inHg , 1007.5 hPa
Clouds: Mostly cloudy
Visibility: 10 miles , 16 km
Cloud details: Mostly cloudy 6000 ft
Mostly cloudy 7000 ft
2019/01/24 08:55 KEZS 240855Z AUTO 25003KT 10SM BKN060 BKN070 M11/M12 A2975 RMK AO2 T11071125
 
KCLI - Clintonville, Wisconsin, USA
Distance from station: W 40mi, 64km
Updated: 01/24/2019 2:55am
Mostly cloudy
Mostly cloudy
 Wind from calm
Wind: Calm
Temperature: 9°F , -13°C
Dew Point: 5°F , -15°C
Humidity: 85%
Barometer: 29.76 inHg , 1007.8 hPa
Clouds: Mostly cloudy
Visibility: 10 miles , 16 km
Cloud details: Mostly cloudy 8000 ft
2019/01/24 08:55 KCLI 240855Z AUTO 00000KT 10SM BKN080 M13/M15 A2976 RMK AO2 T11341154
KMNM - Menominee, Michigan, USA
Distance from station: NNE 44mi, 72km
Updated: 01/24/2019 1:56am
Partly cloudy
Partly cloudy
 Wind from calm
Wind: Calm
Temperature: 9°F , -13°C
Dew Point: 7°F , -14°C
Humidity: 92%
Barometer: 29.76 inHg , 1007.8 hPa
Clouds: Partly cloudy
Visibility: 10 miles , 16 km
Cloud details: Partly cloudy 11000 ft
2019/01/24 07:56 KMNM 240756Z AUTO 00000KT 10SM SCT110 M13/M14 A2976 RMK AO2 SLP101 T11281144 FZRANO $
KOSH - Oshkosh, Wisconsin, USA
Distance from station: SW 49mi, 78km
Updated: 01/24/2019 1:53am
Clear
Clear
 Wind from WSW
Wind: WSW 6 mph , 9 km/h
Temperature: 9°F , -13°C
Wind Chill: -1°F , -18°C
Dew Point: 7°F , -14°C
Humidity: 92%
Barometer: 29.78 inHg , 1008.5 hPa
Clouds: Clear
Visibility: 9 miles , 14 km
2019/01/24 07:53 KOSH 240753Z AUTO 25005KT 9SM CLR M13/M14 A2978 RMK AO2 SLP108 T11281144